createdAt,value
2019-02-10T00:01:58.923Z,4.50
2019-02-10T00:04:28.183Z,4.43
2019-02-10T00:06:57.461Z,4.47
2019-02-10T00:09:26.713Z,5.07
2019-02-10T00:11:56.084Z,4.23
2019-02-10T00:14:25.329Z,4.87
2019-02-10T00:16:54.532Z,4.50
2019-02-10T00:19:23.750Z,5.33
2019-02-10T00:21:53.011Z,5.60
2019-02-10T00:24:22.208Z,5.87
2019-02-10T00:26:51.396Z,5.27
2019-02-10T00:29:20.585Z,5.73
2019-02-10T00:31:49.780Z,5.47
2019-02-10T00:34:19.056Z,6.17
2019-02-10T00:36:48.313Z,6.97
2019-02-10T00:39:17.504Z,7.93
2019-02-10T00:41:46.711Z,7.83
2019-02-10T00:44:15.942Z,7.33
2019-02-10T00:46:45.200Z,7.87
2019-02-10T00:49:14.400Z,7.87
2019-02-10T00:51:43.582Z,8.10
2019-02-10T00:54:12.776Z,8.13
2019-02-10T00:56:41.996Z,7.77
2019-02-10T00:59:11.185Z,8.30
2019-02-10T01:01:40.369Z,9.70
2019-02-10T01:04:09.644Z,9.30
2019-02-10T01:06:41.410Z,8.10
2019-02-10T01:09:10.324Z,8.23
2019-02-10T01:11:39.958Z,8.07
2019-02-10T01:14:09.156Z,7.97
2019-02-10T01:16:38.352Z,8.17
2019-02-10T01:19:09.304Z,7.40
2019-02-10T01:21:40.036Z,7.10
2019-02-10T01:24:09.296Z,6.67
2019-02-10T01:26:38.528Z,6.87
2019-02-10T01:29:07.826Z,7.03
2019-02-10T01:31:36.996Z,7.47
2019-02-10T01:34:06.221Z,7.63
2019-02-10T01:36:35.408Z,7.87
2019-02-10T01:39:08.734Z,7.27
2019-02-10T01:41:38.000Z,5.90
2019-02-10T01:44:07.196Z,5.63
2019-02-10T01:46:36.373Z,4.67
2019-02-10T01:49:05.580Z,5.07
2019-02-10T01:51:34.760Z,4.43
2019-02-10T01:54:04.048Z,4.33
2019-02-10T01:56:33.308Z,3.87
2019-02-10T01:59:02.585Z,3.77
2019-02-10T02:01:31.746Z,3.40
2019-02-10T02:04:01.021Z,3.70
2019-02-10T02:06:30.218Z,3.20
2019-02-10T02:08:59.547Z,3.20
2019-02-10T02:11:28.805Z,2.97
2019-02-10T02:13:57.985Z,3.30
2019-02-10T02:16:27.161Z,3.37
2019-02-10T02:18:56.421Z,3.30
2019-02-10T02:21:25.608Z,3.03
2019-02-10T02:23:54.795Z,3.33
2019-02-10T02:26:23.973Z,3.37
2019-02-10T02:28:53.258Z,3.50
2019-02-10T02:31:22.452Z,3.10
2019-02-10T02:33:51.651Z,3.50
2019-02-10T02:36:20.894Z,3.20
2019-02-10T02:38:50.174Z,3.60
2019-02-10T02:41:19.446Z,3.40
2019-02-10T02:43:48.645Z,3.17
2019-02-10T02:46:17.833Z,3.37
2019-02-10T02:48:47.110Z,3.47
2019-02-10T02:51:16.355Z,3.60
2019-02-10T02:53:45.563Z,2.97
2019-02-10T02:56:14.765Z,3.50
2019-02-10T02:58:44.049Z,3.63
2019-02-10T03:01:13.248Z,3.67
2019-02-10T03:03:42.504Z,2.97
2019-02-10T03:06:11.683Z,3.27
2019-02-10T03:08:40.891Z,3.03
2019-02-10T03:11:10.063Z,3.10
2019-02-10T03:13:39.252Z,3.13
2019-02-10T03:16:08.499Z,2.77
2019-02-10T03:18:37.707Z,3.23
2019-02-10T03:21:06.979Z,3.73
2019-02-10T03:23:36.178Z,3.33
2019-02-10T03:26:05.355Z,3.87
2019-02-10T03:28:34.557Z,3.70
2019-02-10T03:31:03.755Z,4.20
2019-02-10T03:33:32.960Z,3.80
2019-02-10T03:36:02.244Z,4.03
2019-02-10T03:38:31.578Z,3.40
2019-02-10T03:41:00.873Z,3.73
2019-02-10T03:43:30.043Z,3.20
2019-02-10T03:45:59.257Z,2.77
2019-02-10T03:48:28.571Z,2.90
2019-02-10T03:50:57.761Z,2.83
2019-02-10T03:53:26.957Z,3.30
2019-02-10T03:55:56.167Z,2.90
2019-02-10T03:58:25.345Z,2.90
2019-02-10T04:00:54.509Z,3.03
2019-02-10T04:03:23.704Z,3.27
2019-02-10T04:05:52.959Z,3.43
2019-02-10T04:08:22.160Z,2.93
2019-02-10T04:10:51.333Z,3.00
2019-02-10T04:13:22.487Z,3.73
2019-02-10T04:15:51.744Z,3.10
2019-02-10T04:18:21.061Z,2.90
2019-02-10T04:20:50.243Z,3.00
2019-02-10T04:23:19.440Z,2.97
2019-02-10T04:25:48.625Z,2.70
2019-02-10T04:28:17.804Z,3.00
2019-02-10T04:30:46.997Z,3.10
2019-02-10T04:33:35.416Z,3.50
2019-02-10T04:36:04.665Z,3.97
2019-02-10T04:38:33.870Z,4.10
2019-02-10T04:41:03.145Z,4.40
2019-02-10T04:43:32.319Z,5.00
2019-02-10T04:46:01.517Z,4.40
2019-02-10T04:48:30.841Z,3.80
2019-02-10T04:51:00.042Z,3.57
2019-02-10T04:53:29.217Z,3.17
2019-02-10T04:56:18.359Z,3.50
2019-02-10T04:58:47.749Z,3.23
2019-02-10T05:01:17.122Z,4.20
2019-02-10T05:03:46.384Z,4.13
2019-02-10T05:06:15.597Z,4.43
2019-02-10T05:08:44.774Z,4.87
2019-02-10T05:11:14.064Z,4.70
2019-02-10T05:13:43.309Z,4.70
2019-02-10T05:16:12.516Z,4.40
2019-02-10T05:18:41.691Z,4.07
2019-02-10T05:21:11.048Z,4.60
2019-02-10T05:23:40.304Z,4.50
2019-02-10T05:26:09.554Z,4.10
2019-02-10T05:28:38.810Z,4.20
2019-02-10T05:31:08.005Z,4.00
2019-02-10T05:33:37.184Z,4.20
2019-02-10T05:36:06.427Z,3.87
2019-02-10T05:38:35.614Z,3.57
2019-02-10T05:41:04.890Z,4.03
2019-02-10T05:43:34.154Z,3.80
2019-02-10T05:46:03.378Z,3.70
2019-02-10T05:48:32.557Z,3.80
2019-02-10T05:51:01.771Z,3.47
2019-02-10T05:53:30.973Z,3.37
2019-02-10T05:56:00.149Z,3.60
2019-02-10T05:58:29.365Z,3.43
2019-02-10T06:01:35.335Z,4.00
2019-02-10T06:04:04.537Z,4.00
2019-02-10T06:06:33.725Z,3.60
2019-02-10T06:09:04.068Z,3.17
2019-02-10T06:11:33.317Z,3.60
2019-02-10T06:14:21.575Z,3.40
2019-02-10T06:16:50.771Z,3.97
2019-02-10T06:19:19.998Z,3.60
2019-02-10T06:21:49.171Z,4.20
2019-02-10T06:24:18.373Z,3.73
2019-02-10T06:26:47.552Z,4.00
2019-02-10T06:29:16.753Z,4.10
2019-02-10T06:31:45.926Z,3.67
2019-02-10T06:34:15.098Z,3.77
2019-02-10T06:36:44.308Z,3.57
2019-02-10T06:39:13.476Z,3.60
2019-02-10T06:41:42.681Z,3.40
2019-02-10T06:44:11.957Z,3.67
2019-02-10T06:46:41.184Z,3.73
2019-02-10T06:49:10.441Z,3.60
2019-02-10T06:51:39.723Z,3.80
2019-02-10T06:54:08.979Z,3.70
2019-02-10T06:56:38.263Z,5.13
2019-02-10T06:59:10.896Z,3.40
2019-02-10T07:01:44.892Z,3.40
2019-02-10T07:04:22.991Z,3.57
2019-02-10T07:06:52.180Z,3.30
2019-02-10T07:09:23.014Z,3.30
2019-02-10T07:11:52.294Z,3.10
2019-02-10T07:14:25.268Z,3.20
2019-02-10T07:17:22.928Z,4.20
2019-02-10T07:20:51.587Z,3.93
2019-02-10T07:24:06.964Z,2.80
2019-02-10T07:27:08.428Z,2.47
2019-02-10T07:30:10.193Z,4.80
2019-02-10T07:32:45.942Z,4.90
2019-02-10T07:35:54.970Z,9.90
2019-02-10T07:38:52.877Z,6.00
2019-02-10T07:41:54.446Z,5.67
2019-02-10T07:44:47.628Z,4.40
2019-02-10T07:47:39.402Z,3.70
2019-02-10T07:50:36.025Z,3.80
2019-02-10T07:54:04.782Z,3.20
2019-02-10T07:57:22.068Z,11.73
2019-02-10T08:00:12.516Z,7.57
2019-02-10T08:03:31.974Z,11.43
2019-02-10T08:06:23.208Z,16.23
2019-02-10T08:09:45.276Z,50.50
2019-02-10T08:12:49.288Z,19.40
2019-02-10T08:16:05.372Z,8.40
2019-02-10T08:19:11.128Z,4.03
2019-02-10T08:22:17.160Z,3.87
2019-02-10T08:25:33.077Z,3.40
2019-02-10T08:28:46.658Z,3.20
2019-02-10T08:31:58.827Z,3.13
2019-02-10T08:35:15.816Z,3.17
2019-02-10T08:37:56.797Z,3.07
2019-02-10T08:40:48.401Z,3.20
2019-02-10T08:43:45.390Z,2.90
2019-02-10T08:46:49.059Z,2.83
2019-02-10T08:50:26.876Z,3.40
2019-02-10T08:53:08.732Z,6.30
2019-02-10T08:55:38.014Z,2.80
2019-02-10T08:58:07.197Z,2.33
2019-02-10T09:00:36.497Z,2.70
2019-02-10T09:03:05.692Z,2.47
2019-02-10T09:05:34.895Z,2.30
2019-02-10T09:08:04.100Z,2.40
2019-02-10T09:10:33.278Z,2.60
2019-02-10T09:13:02.556Z,2.30
2019-02-10T09:15:31.865Z,2.53
2019-02-10T09:18:01.094Z,4.97
2019-02-10T09:20:30.577Z,3.03
2019-02-10T09:22:59.801Z,8.70
2019-02-10T09:25:28.997Z,4.10
2019-02-10T09:27:58.201Z,3.03
2019-02-10T09:30:27.389Z,3.20
2019-02-10T09:32:56.597Z,3.50
2019-02-10T09:35:25.825Z,2.93
2019-02-10T09:37:55.221Z,3.17
2019-02-10T09:40:24.417Z,3.03
2019-02-10T09:42:53.708Z,3.00
2019-02-10T09:45:22.934Z,3.00
2019-02-10T09:48:11.201Z,2.90
2019-02-10T09:50:40.443Z,2.90
2019-02-10T09:53:09.877Z,2.70
2019-02-10T09:55:39.229Z,2.97
2019-02-10T09:58:08.487Z,2.90
2019-02-10T10:00:37.827Z,3.10
2019-02-10T10:03:07.023Z,3.10
2019-02-10T10:05:36.243Z,3.00
2019-02-10T10:08:05.453Z,3.30
2019-02-10T10:10:34.773Z,3.10
2019-02-10T10:13:04.045Z,3.00
2019-02-10T10:15:33.288Z,2.90
2019-02-10T10:18:02.520Z,3.10
2019-02-10T10:20:31.846Z,8.07
2019-02-10T10:23:01.196Z,6.57
2019-02-10T10:25:30.522Z,3.60
2019-02-10T10:27:59.966Z,3.17
2019-02-10T10:30:29.257Z,3.43
2019-02-10T10:32:58.596Z,2.80
2019-02-10T10:35:28.025Z,3.03
2019-02-10T10:37:57.433Z,3.00
2019-02-10T10:40:26.827Z,3.97
2019-02-10T10:42:56.252Z,2.90
2019-02-10T10:45:25.554Z,3.23
2019-02-10T10:47:54.904Z,2.80
2019-02-10T10:50:24.251Z,2.67
2019-02-10T10:52:53.594Z,2.90
2019-02-10T10:55:22.918Z,2.57
2019-02-10T10:57:53.822Z,3.00
2019-02-10T11:00:23.254Z,3.60
2019-02-10T11:02:52.566Z,2.87
2019-02-10T11:05:40.931Z,2.93
2019-02-10T11:08:10.308Z,3.10
2019-02-10T11:10:39.640Z,3.70
2019-02-10T11:13:08.964Z,3.60
2019-02-10T11:15:38.348Z,3.60
2019-02-10T11:18:07.642Z,3.60
2019-02-10T11:20:36.994Z,3.23
2019-02-10T11:23:06.209Z,3.40
2019-02-10T11:25:35.534Z,4.20
2019-02-10T11:28:24.036Z,4.83
2019-02-10T11:30:53.374Z,3.67
2019-02-10T11:33:22.614Z,4.70
2019-02-10T11:35:51.844Z,3.50
2019-02-10T11:38:21.149Z,3.10
2019-02-10T11:40:50.440Z,3.70
2019-02-10T11:43:19.770Z,3.30
2019-02-10T11:45:49.138Z,3.83
2019-02-10T11:48:18.494Z,4.07
2019-02-10T11:51:06.978Z,3.80
2019-02-10T11:53:36.298Z,4.37
2019-02-10T11:56:05.644Z,4.43
2019-02-10T11:58:35.003Z,4.53
2019-02-10T12:01:04.354Z,4.20
2019-02-10T12:03:33.614Z,3.70
2019-02-10T12:06:02.943Z,3.90
2019-02-10T12:08:51.338Z,3.10
2019-02-10T12:11:20.671Z,3.20
2019-02-10T12:14:09.365Z,3.00
2019-02-10T12:16:38.759Z,2.67
2019-02-10T12:19:08.180Z,2.70
2019-02-10T12:21:37.632Z,2.60
2019-02-10T12:24:07.061Z,2.40
2019-02-10T12:26:42.581Z,2.60
2019-02-10T12:29:11.955Z,2.50
2019-02-10T12:31:41.258Z,2.70
2019-02-10T12:34:10.915Z,2.53
2019-02-10T12:36:40.247Z,2.60
2019-02-10T12:39:09.640Z,2.80
2019-02-10T12:41:39.043Z,2.47
2019-02-10T12:44:27.505Z,2.50
2019-02-10T12:46:57.089Z,2.50
2019-02-10T12:49:26.407Z,2.40
2019-02-10T12:51:56.052Z,2.47
2019-02-10T12:54:25.389Z,2.53
2019-02-10T12:56:54.828Z,2.17
2019-02-10T12:59:24.083Z,2.20
2019-02-10T13:01:53.793Z,4.60
2019-02-10T13:04:23.188Z,2.33
2019-02-10T13:06:52.609Z,2.60
2019-02-10T13:09:21.994Z,2.60
2019-02-10T13:11:58.352Z,2.60
2019-02-10T13:14:22.457Z,2.80
2019-02-10T13:16:52.795Z,3.23
2019-02-10T13:19:22.111Z,2.23
2019-02-10T13:22:10.645Z,2.37
2019-02-10T13:24:40.707Z,2.37
2019-02-10T13:27:10.320Z,2.80
2019-02-10T13:29:39.647Z,2.63
2019-02-10T13:32:09.217Z,2.77
2019-02-10T13:34:38.453Z,3.10
2019-02-10T13:37:08.132Z,3.80
2019-02-10T13:39:37.654Z,3.30
2019-02-10T13:42:07.010Z,3.07
2019-02-10T13:44:36.728Z,2.97
2019-02-10T13:47:06.072Z,2.97
2019-02-10T13:49:35.872Z,2.97
2019-02-10T13:52:05.326Z,2.43
2019-02-10T13:54:34.739Z,2.63
2019-02-10T13:57:04.132Z,2.90
2019-02-10T13:59:33.868Z,2.60
2019-02-10T14:02:03.300Z,3.10
2019-02-10T14:04:33.668Z,2.53
2019-02-10T14:07:03.095Z,3.00
2019-02-10T14:09:32.884Z,2.77
2019-02-10T14:12:02.428Z,2.60
2019-02-10T14:14:31.777Z,2.70
2019-02-10T14:17:01.968Z,2.93
2019-02-10T14:19:31.514Z,2.53
2019-02-10T14:22:00.956Z,2.70
2019-02-10T14:24:30.726Z,3.13
2019-02-10T14:27:02.546Z,2.70
2019-02-10T14:29:34.615Z,2.87
2019-02-10T14:32:03.972Z,5.43
2019-02-10T14:34:33.387Z,5.97
2019-02-10T14:37:04.789Z,4.60
2019-02-10T14:39:34.215Z,4.47
2019-02-10T14:42:04.050Z,5.00
2019-02-10T14:44:33.494Z,7.17
2019-02-10T14:47:02.934Z,6.00
2019-02-10T14:49:33.121Z,4.80
2019-02-10T14:52:02.464Z,6.03
2019-02-10T14:54:32.890Z,5.90
2019-02-10T14:57:03.071Z,5.37
2019-02-10T14:59:32.403Z,6.00
2019-02-10T15:02:14.106Z,6.10
2019-02-10T15:04:43.514Z,5.50
2019-02-10T15:07:16.513Z,5.30
2019-02-10T15:09:46.034Z,6.07
2019-02-10T15:12:15.366Z,5.17
2019-02-10T15:14:44.759Z,5.10
2019-02-10T15:17:14.339Z,5.40
2019-02-10T15:19:44.010Z,6.83
2019-02-10T15:22:13.439Z,6.60
2019-02-10T15:24:50.329Z,7.07
2019-02-10T15:27:19.614Z,8.03
2019-02-10T15:29:49.035Z,7.77
2019-02-10T15:32:20.763Z,11.57
2019-02-10T15:34:50.728Z,24.03
2019-02-10T15:37:39.126Z,17.40
2019-02-10T15:40:08.757Z,11.00
2019-02-10T15:42:38.115Z,9.47
2019-02-10T15:45:08.563Z,8.20
2019-02-10T15:47:37.944Z,6.30
2019-02-10T15:50:08.961Z,5.60
2019-02-10T15:52:38.289Z,12.13
2019-02-10T15:55:08.893Z,8.67
2019-02-10T15:57:41.147Z,8.57
2019-02-10T16:00:13.995Z,7.60
2019-02-10T16:02:45.305Z,6.67
2019-02-10T16:05:15.044Z,6.50
2019-02-10T16:07:44.457Z,7.67
2019-02-10T16:10:16.235Z,7.43
2019-02-10T16:12:47.187Z,6.87
2019-02-10T16:15:16.656Z,8.93
2019-02-10T16:17:45.999Z,8.83
2019-02-10T16:20:15.427Z,8.67
2019-02-10T16:22:44.904Z,8.70
2019-02-10T16:25:14.487Z,9.33
2019-02-10T16:27:44.226Z,8.87
2019-02-10T16:30:17.140Z,9.07
2019-02-10T16:32:49.995Z,8.87
2019-02-10T16:35:17.899Z,10.17
2019-02-10T16:38:08.399Z,10.43
2019-02-10T16:40:38.011Z,12.83
2019-02-10T16:43:08.146Z,16.63
2019-02-10T16:45:37.518Z,12.90
2019-02-10T16:48:07.279Z,12.20
2019-02-10T16:50:36.808Z,11.57
2019-02-10T16:53:06.429Z,10.27
2019-02-10T16:55:35.855Z,10.07
2019-02-10T16:58:05.365Z,9.73
2019-02-10T17:00:34.880Z,10.37
2019-02-10T17:03:04.720Z,10.63
2019-02-10T17:05:34.141Z,11.00
2019-02-10T17:08:04.489Z,10.07
2019-02-10T17:10:34.186Z,10.33
2019-02-10T17:13:04.055Z,15.10
2019-02-10T17:15:33.731Z,17.70
2019-02-10T17:18:03.980Z,16.57
2019-02-10T17:20:33.704Z,14.67
2019-02-10T17:23:04.730Z,14.17
2019-02-10T17:25:34.701Z,13.13
2019-02-10T17:28:04.454Z,13.97
2019-02-10T17:30:37.721Z,16.10
2019-02-10T17:33:07.656Z,16.40
2019-02-10T17:35:38.608Z,13.10
2019-02-10T17:38:08.634Z,10.10
2019-02-10T17:40:41.855Z,9.43
2019-02-10T17:43:11.429Z,11.50
2019-02-10T17:45:41.536Z,13.37
2019-02-10T17:48:11.214Z,11.90
2019-02-10T17:50:42.441Z,11.03
2019-02-10T17:53:12.326Z,10.13
2019-02-10T17:55:44.206Z,10.70
2019-02-10T17:58:13.846Z,10.70
2019-02-10T18:00:47.070Z,11.37
2019-02-10T18:03:18.431Z,12.10
2019-02-10T18:05:48.491Z,14.10
2019-02-10T18:08:19.722Z,13.30
2019-02-10T18:10:52.405Z,11.63
2019-02-10T18:13:22.019Z,11.37
2019-02-10T18:16:14.005Z,17.20
2019-02-10T18:19:12.448Z,18.70
2019-02-10T18:21:48.921Z,17.00
2019-02-10T18:24:27.835Z,16.07
2019-02-10T18:27:15.906Z,16.10
2019-02-10T18:29:58.741Z,14.27
2019-02-10T18:32:50.326Z,14.57
2019-02-10T18:35:41.433Z,15.87
2019-02-10T18:38:17.922Z,11.10
2019-02-10T18:41:15.777Z,8.43
2019-02-10T18:44:01.053Z,9.30
2019-02-10T18:47:00.610Z,7.63
2019-02-10T18:49:52.401Z,6.27
2019-02-10T18:52:31.947Z,6.13
2019-02-10T18:55:24.083Z,6.07
2019-02-10T18:58:07.713Z,5.73
2019-02-10T19:01:00.609Z,5.30
2019-02-10T19:04:08.202Z,5.33
2019-02-10T19:07:09.310Z,6.23
2019-02-10T19:09:57.139Z,6.60
2019-02-10T19:12:55.636Z,5.57
2019-02-10T19:15:55.690Z,4.70
2019-02-10T19:18:40.518Z,4.80
2019-02-10T19:21:29.207Z,4.53
2019-02-10T19:24:20.147Z,3.20
2019-02-10T19:27:14.155Z,2.77
2019-02-10T19:30:03.250Z,1.00
2019-02-10T19:33:02.226Z,0.80
2019-02-10T19:35:54.057Z,0.63
2019-02-10T19:38:43.129Z,0.40
2019-02-10T19:41:38.264Z,0.60
2019-02-10T19:44:31.048Z,0.50
2019-02-10T19:47:14.118Z,0.73
2019-02-10T19:50:10.125Z,0.60
2019-02-10T19:52:54.998Z,0.57
2019-02-10T19:55:35.252Z,0.30
2019-02-10T19:58:26.916Z,0.50
2019-02-10T20:01:14.745Z,0.40
2019-02-10T20:04:03.625Z,0.40
2019-02-10T20:06:45.436Z,0.87
2019-02-10T20:09:33.705Z,0.50
2019-02-10T20:12:21.572Z,0.53
2019-02-10T20:15:13.262Z,0.60
2019-02-10T20:18:11.979Z,0.60
2019-02-10T20:21:01.886Z,0.97
2019-02-10T20:24:18.904Z,0.97
2019-02-10T20:27:17.388Z,1.93
2019-02-10T20:30:12.800Z,1.10
2019-02-10T20:32:59.723Z,1.10
2019-02-10T20:35:48.544Z,0.70
2019-02-10T20:38:30.031Z,0.70
2019-02-10T20:41:34.150Z,1.00
2019-02-10T20:44:38.460Z,0.63
2019-02-10T20:47:28.771Z,0.60
2019-02-10T20:50:26.563Z,0.60
2019-02-10T20:53:20.746Z,1.13
2019-02-10T20:56:01.485Z,0.67
2019-02-10T20:58:53.451Z,0.43
2019-02-10T21:01:42.133Z,0.60
2019-02-10T21:04:19.395Z,0.50
2019-02-10T21:07:19.179Z,0.67
2019-02-10T21:10:01.979Z,0.70
2019-02-10T21:12:41.441Z,0.47
2019-02-10T21:15:24.462Z,0.60
2019-02-10T21:18:02.599Z,0.53
2019-02-10T21:20:54.529Z,0.40
2019-02-10T21:23:49.269Z,0.50
2019-02-10T21:26:37.994Z,0.57
2019-02-10T21:29:26.549Z,0.50
2019-02-10T21:32:28.374Z,0.43
2019-02-10T21:35:38.671Z,0.30
2019-02-10T21:38:21.366Z,0.60
2019-02-10T21:41:07.512Z,0.80
2019-02-10T21:43:56.062Z,1.30
2019-02-10T21:46:44.460Z,0.50
2019-02-10T21:49:15.906Z,0.40
2019-02-10T21:51:45.206Z,0.40
2019-02-10T21:54:14.698Z,1.10
2019-02-10T21:56:44.372Z,1.00
2019-02-10T21:59:13.958Z,0.60
2019-02-10T22:01:43.371Z,0.63
2019-02-10T22:04:12.792Z,0.60
2019-02-10T22:06:42.200Z,1.10
2019-02-10T22:09:11.521Z,2.10
2019-02-10T22:11:40.924Z,0.90
2019-02-10T22:14:10.257Z,0.80
2019-02-10T22:16:39.622Z,0.60
2019-02-10T22:19:28.052Z,0.60
2019-02-10T22:21:57.273Z,0.50
2019-02-10T22:24:26.573Z,0.40
2019-02-10T22:26:55.856Z,0.50
2019-02-10T22:29:25.138Z,0.27
2019-02-10T22:31:54.371Z,0.20
2019-02-10T22:34:23.559Z,0.20
2019-02-10T22:36:52.736Z,0.20
2019-02-10T22:39:22.023Z,0.23
2019-02-10T22:41:51.205Z,0.20
2019-02-10T22:44:20.468Z,0.23
2019-02-10T22:46:49.668Z,0.50
2019-02-10T22:49:18.985Z,0.53
2019-02-10T22:51:48.274Z,0.40
2019-02-10T22:54:17.468Z,0.20
2019-02-10T22:56:46.632Z,0.40
2019-02-10T22:59:15.846Z,0.20
2019-02-10T23:01:45.164Z,0.37
2019-02-10T23:04:14.461Z,0.53
2019-02-10T23:06:45.056Z,0.40
2019-02-10T23:09:19.977Z,0.40
2019-02-10T23:11:49.229Z,0.30
2019-02-10T23:14:18.497Z,0.50
2019-02-10T23:16:47.702Z,0.50
2019-02-10T23:19:17.044Z,0.60
2019-02-10T23:21:46.329Z,0.70
2019-02-10T23:24:34.601Z,0.50
2019-02-10T23:27:03.780Z,0.43
2019-02-10T23:29:32.973Z,0.60
2019-02-10T23:32:02.224Z,0.60
2019-02-10T23:34:31.421Z,0.60
2019-02-10T23:37:00.585Z,0.70
2019-02-10T23:39:30.098Z,0.60
2019-02-10T23:41:59.345Z,0.30
2019-02-10T23:44:28.545Z,0.70
2019-02-10T23:46:57.809Z,0.43
2019-02-10T23:49:27.025Z,0.50
2019-02-10T23:51:56.269Z,0.80
2019-02-10T23:54:25.601Z,0.80
2019-02-10T23:56:54.781Z,0.57
2019-02-10T23:59:24.039Z,0.80
